Platteville, Iowa
Current Conditions -  °F | °C
As of 4:55 AM on Friday 31 Oct 2014 (Local Time) from KCSQ Reporting Station
Clear Clear  
Wind Chill: 20°   Ceiling: Unl
Heat Index: 32°   Visibility: 10mi
Dew Point: 21°   Wind: 21mph
Humidity: 64%   Direction: 360°N
Pressure: 30.39"   Gusts: 30mph
Location:  40.6485°N, 94.5286°W
Report Text: KCSQ 310955Z AUTO 36018G26KT 10SM CLR M00/M06 A3039 RMK AO2
Loading
Personal Weather Stations






























Interactive Weather Map
Tropical Storm Tracking
New forecast layout! Learn more

10-Day Weather Forecast

Advertisements
Track Severe Weather on mobile